Airfield :
LOGIN :

Register | Disclaimer

   EN    FR    IT 

 










Legend :    VFR   Marginal VFR   IFR   Intensive IFR   Very Intensive IFR
Visi :
Ceiling :
>= 8 km
>= 3000ft
5 to 8 km
1000 to 3000 ft
1500m to 5 km
500 to 1000 ft
800 to 1500m
200 to 500 ft
< 800m
< 200 ft
Symbols :   Thunderstorms  Fog  Heavy snow  Heavy precipitations  Wind > 20 kt
SIGMETs :     Misc.  Thunderstorms  Icing  Turbulence  Mountain Waves  Volcanic Ashes







- Airport Elevation : 400 ft
- IATA code : BNX


LQBK - Banja Luka

CURRENT METAR :
  • 151200Z 02004KT CAVOK 18/06 Q1021 NOSIG

EXPIRED METARs :
  • 151130Z 35004KT CAVOK 18/07 Q1021 NOSIG
  • 151100Z 01004KT CAVOK 17/09 Q1021 NOSIG
  • 151030Z 36005KT CAVOK 17/07 Q1021 NOSIG
  • 151000Z 34004KT CAVOK 16/09 Q1022 NOSIG
  • 150930Z 35003KT CAVOK 14/09 Q1022 NOSIG

TAF TAF LQBK
Valid from the 15 at 12:00 until the 16 at 12:00 UTC


151100Z 1512/1612 36006KT CAVOK TX21/1514Z TN06/1605Z
TEMPO 1521/1601 4000 BR
TEMPO 1601/1606 2000 BR
PROB40
TEMPO 1604/1606 0300 FG VV001
No reported NOTAMs for that airfield.



MET'MAP, your aeronautical weather chart ! - Copyright ORBIFLY December 2007 - Disclaimer

ORBIFLY MET'MAP TEAM :

Programming & Development : Alexandra Zaïnal
Concept & Development : Baudouin d'Aumeries
Co-Development & Prog : Marc-Olivier Méhu
Technical & hardware support : Manuel Goepfert

Contact : metmap@orbifly.com




SOURCES & CREDITS :

   NOAA